sensor_id;sensor_type;location;lat;lon;timestamp;P1;durP1;ratioP1;P2;durP2;ratioP2
920;SDS011;447;51.332;6.778;2023-05-10T00:00:45;3.50;;;3.20;;
920;SDS011;447;51.332;6.778;2023-05-10T00:03:14;4.80;;;3.83;;
920;SDS011;447;51.332;6.778;2023-05-10T00:05:39;4.30;;;3.90;;
920;SDS011;447;51.332;6.778;2023-05-10T00:08:05;4.90;;;3.93;;
920;SDS011;447;51.332;6.778;2023-05-10T00:10:34;4.80;;;4.30;;
920;SDS011;447;51.332;6.778;2023-05-10T00:13:00;4.20;;;3.80;;
920;SDS011;447;51.332;6.778;2023-05-10T00:15:31;4.60;;;3.90;;
920;SDS011;447;51.332;6.778;2023-05-10T00:18:00;4.53;;;4.13;;
920;SDS011;447;51.332;6.778;2023-05-10T00:20:26;4.03;;;3.73;;
920;SDS011;447;51.332;6.778;2023-05-10T00:22:54;4.20;;;3.57;;
920;SDS011;447;51.332;6.778;2023-05-10T00:25:20;5.37;;;4.73;;
920;SDS011;447;51.332;6.778;2023-05-10T00:27:47;4.60;;;4.20;;
920;SDS011;447;51.332;6.778;2023-05-10T00:30:13;5.03;;;4.30;;
920;SDS011;447;51.332;6.778;2023-05-10T00:32:42;8.40;;;4.47;;
920;SDS011;447;51.332;6.778;2023-05-10T00:35:10;4.60;;;4.20;;
920;SDS011;447;51.332;6.778;2023-05-10T00:37:36;4.40;;;4.00;;
920;SDS011;447;51.332;6.778;2023-05-10T00:40:02;5.43;;;4.93;;
920;SDS011;447;51.332;6.778;2023-05-10T00:42:31;3.70;;;3.40;;
920;SDS011;447;51.332;6.778;2023-05-10T00:45:02;4.50;;;4.10;;
920;SDS011;447;51.332;6.778;2023-05-10T00:47:30;4.50;;;4.07;;
920;SDS011;447;51.332;6.778;2023-05-10T00:50:01;4.40;;;4.00;;
920;SDS011;447;51.332;6.778;2023-05-10T00:52:28;5.40;;;3.83;;
920;SDS011;447;51.332;6.778;2023-05-10T00:54:54;4.70;;;4.30;;
920;SDS011;447;51.332;6.778;2023-05-10T00:57:24;4.30;;;3.90;;
920;SDS011;447;51.332;6.778;2023-05-10T00:59:53;3.77;;;3.47;;
920;SDS011;447;51.332;6.778;2023-05-10T01:02:19;4.60;;;4.13;;
920;SDS011;447;51.332;6.778;2023-05-10T01:04:45;4.90;;;4.23;;
920;SDS011;447;51.332;6.778;2023-05-10T01:07:11;4.97;;;4.43;;
920;SDS011;447;51.332;6.778;2023-05-10T01:13:40;4.40;;;4.00;;
920;SDS011;447;51.332;6.778;2023-05-10T01:16:08;4.43;;;3.60;;
920;SDS011;447;51.332;6.778;2023-05-10T01:18:35;4.70;;;4.30;;
920;SDS011;447;51.332;6.778;2023-05-10T01:34:59;4.27;;;3.70;;
920;SDS011;447;51.332;6.778;2023-05-10T01:40:08;4.43;;;3.97;;
920;SDS011;447;51.332;6.778;2023-05-10T01:43:01;4.93;;;4.23;;
920;SDS011;447;51.332;6.778;2023-05-10T01:45:45;4.63;;;4.23;;
920;SDS011;447;51.332;6.778;2023-05-10T01:48:25;4.73;;;4.33;;
920;SDS011;447;51.332;6.778;2023-05-10T01:50:54;5.73;;;4.27;;
920;SDS011;447;51.332;6.778;2023-05-10T01:53:27;5.13;;;4.63;;
920;SDS011;447;51.332;6.778;2023-05-10T01:55:55;5.43;;;4.93;;
920;SDS011;447;51.332;6.778;2023-05-10T01:58:28;4.80;;;4.20;;
920;SDS011;447;51.332;6.778;2023-05-10T02:01:02;5.00;;;4.50;;
920;SDS011;447;51.332;6.778;2023-05-10T02:03:29;4.83;;;4.43;;
920;SDS011;447;51.332;6.778;2023-05-10T02:05:57;5.50;;;4.77;;
920;SDS011;447;51.332;6.778;2023-05-10T02:08:27;4.87;;;4.40;;
920;SDS011;447;51.332;6.778;2023-05-10T02:10:54;6.00;;;4.00;;
920;SDS011;447;51.332;6.778;2023-05-10T02:13:29;4.00;;;3.63;;
920;SDS011;447;51.332;6.778;2023-05-10T02:15:59;4.70;;;4.03;;
920;SDS011;447;51.332;6.778;2023-05-10T02:18:28;4.93;;;3.80;;
920;SDS011;447;51.332;6.778;2023-05-10T02:20:55;6.03;;;4.70;;
920;SDS011;447;51.332;6.778;2023-05-10T02:23:25;4.10;;;3.80;;
920;SDS011;447;51.332;6.778;2023-05-10T02:25:52;4.40;;;4.00;;
920;SDS011;447;51.332;6.778;2023-05-10T02:28:23;5.60;;;5.10;;
920;SDS011;447;51.332;6.778;2023-05-10T02:30:56;5.00;;;4.50;;
920;SDS011;447;51.332;6.778;2023-05-10T02:33:23;4.90;;;4.40;;
920;SDS011;447;51.332;6.778;2023-05-10T02:35:53;5.20;;;4.37;;
920;SDS011;447;51.332;6.778;2023-05-10T02:38:20;5.27;;;4.40;;
920;SDS011;447;51.332;6.778;2023-05-10T02:40:52;4.00;;;3.70;;
920;SDS011;447;51.332;6.778;2023-05-10T02:43:19;5.80;;;4.70;;
920;SDS011;447;51.332;6.778;2023-05-10T02:45:48;5.37;;;4.10;;
920;SDS011;447;51.332;6.778;2023-05-10T02:48:19;4.50;;;4.10;;
920;SDS011;447;51.332;6.778;2023-05-10T02:50:45;4.80;;;4.40;;
920;SDS011;447;51.332;6.778;2023-05-10T02:53:18;4.43;;;4.03;;
920;SDS011;447;51.332;6.778;2023-05-10T02:55:55;4.40;;;4.00;;
920;SDS011;447;51.332;6.778;2023-05-10T02:58:27;5.10;;;4.60;;
920;SDS011;447;51.332;6.778;2023-05-10T03:00:55;6.20;;;3.97;;
920;SDS011;447;51.332;6.778;2023-05-10T03:03:26;4.10;;;3.70;;
920;SDS011;447;51.332;6.778;2023-05-10T03:05:54;5.80;;;4.57;;
920;SDS011;447;51.332;6.778;2023-05-10T03:08:23;8.60;;;4.13;;
920;SDS011;447;51.332;6.778;2023-05-10T03:11:03;4.90;;;4.40;;
920;SDS011;447;51.332;6.778;2023-05-10T03:14:04;3.87;;;3.57;;
920;SDS011;447;51.332;6.778;2023-05-10T03:16:40;4.37;;;4.00;;
920;SDS011;447;51.332;6.778;2023-05-10T03:19:17;7.80;;;4.80;;
920;SDS011;447;51.332;6.778;2023-05-10T03:22:02;5.03;;;4.53;;
920;SDS011;447;51.332;6.778;2023-05-10T03:24:35;5.13;;;4.63;;
920;SDS011;447;51.332;6.778;2023-05-10T03:27:07;5.27;;;4.80;;
920;SDS011;447;51.332;6.778;2023-05-10T03:29:36;5.70;;;4.20;;
920;SDS011;447;51.332;6.778;2023-05-10T03:32:07;4.90;;;4.13;;
920;SDS011;447;51.332;6.778;2023-05-10T03:34:33;4.93;;;4.37;;
920;SDS011;447;51.332;6.778;2023-05-10T03:37:08;4.80;;;4.40;;
920;SDS011;447;51.332;6.778;2023-05-10T03:39:42;5.50;;;4.57;;
920;SDS011;447;51.332;6.778;2023-05-10T03:42:09;4.53;;;4.13;;
920;SDS011;447;51.332;6.778;2023-05-10T03:44:38;4.30;;;3.90;;
920;SDS011;447;51.332;6.778;2023-05-10T03:47:04;4.40;;;4.00;;
920;SDS011;447;51.332;6.778;2023-05-10T03:49:33;5.20;;;4.57;;
920;SDS011;447;51.332;6.778;2023-05-10T03:52:00;4.70;;;4.30;;
920;SDS011;447;51.332;6.778;2023-05-10T03:54:28;4.10;;;3.57;;
920;SDS011;447;51.332;6.778;2023-05-10T03:56:56;4.60;;;4.20;;
920;SDS011;447;51.332;6.778;2023-05-10T03:59:23;4.47;;;4.00;;
920;SDS011;447;51.332;6.778;2023-05-10T04:01:52;4.80;;;4.10;;
920;SDS011;447;51.332;6.778;2023-05-10T04:04:20;4.83;;;4.43;;
920;SDS011;447;51.332;6.778;2023-05-10T04:06:48;5.80;;;4.67;;
920;SDS011;447;51.332;6.778;2023-05-10T04:09:14;4.00;;;3.70;;
920;SDS011;447;51.332;6.778;2023-05-10T04:11:44;5.00;;;4.47;;
920;SDS011;447;51.332;6.778;2023-05-10T04:14:10;4.57;;;4.07;;
920;SDS011;447;51.332;6.778;2023-05-10T04:16:36;4.30;;;3.90;;
920;SDS011;447;51.332;6.778;2023-05-10T04:19:04;4.83;;;4.43;;
920;SDS011;447;51.332;6.778;2023-05-10T04:21:32;5.57;;;4.03;;
920;SDS011;447;51.332;6.778;2023-05-10T04:24:01;4.53;;;4.13;;
920;SDS011;447;51.332;6.778;2023-05-10T04:26:27;4.10;;;3.70;;
920;SDS011;447;51.332;6.778;2023-05-10T04:28:53;5.00;;;4.37;;
920;SDS011;447;51.332;6.778;2023-05-10T04:31:19;5.13;;;4.63;;
920;SDS011;447;51.332;6.778;2023-05-10T04:33:50;5.70;;;4.50;;
920;SDS011;447;51.332;6.778;2023-05-10T04:36:16;5.90;;;4.93;;
920;SDS011;447;51.332;6.778;2023-05-10T04:38:42;5.40;;;4.40;;
920;SDS011;447;51.332;6.778;2023-05-10T04:41:10;6.37;;;5.10;;
920;SDS011;447;51.332;6.778;2023-05-10T04:43:38;6.00;;;5.23;;
920;SDS011;447;51.332;6.778;2023-05-10T04:46:06;5.40;;;4.90;;
920;SDS011;447;51.332;6.778;2023-05-10T04:48:35;5.27;;;4.77;;
920;SDS011;447;51.332;6.778;2023-05-10T04:51:01;6.60;;;5.90;;
920;SDS011;447;51.332;6.778;2023-05-10T04:53:31;7.33;;;6.40;;
920;SDS011;447;51.332;6.778;2023-05-10T04:55:57;6.87;;;5.53;;
920;SDS011;447;51.332;6.778;2023-05-10T04:58:23;7.37;;;6.67;;
920;SDS011;447;51.332;6.778;2023-05-10T05:00:52;7.27;;;5.57;;
920;SDS011;447;51.332;6.778;2023-05-10T05:03:20;7.20;;;5.90;;
920;SDS011;447;51.332;6.778;2023-05-10T05:05:47;8.30;;;6.03;;
920;SDS011;447;51.332;6.778;2023-05-10T05:08:13;7.37;;;6.53;;
920;SDS011;447;51.332;6.778;2023-05-10T05:10:41;6.90;;;6.20;;
920;SDS011;447;51.332;6.778;2023-05-10T05:13:12;6.87;;;5.97;;
920;SDS011;447;51.332;6.778;2023-05-10T05:15:40;7.83;;;6.67;;
920;SDS011;447;51.332;6.778;2023-05-10T05:18:09;7.70;;;6.30;;
920;SDS011;447;51.332;6.778;2023-05-10T05:20:40;9.73;;;7.70;;
920;SDS011;447;51.332;6.778;2023-05-10T05:23:06;9.40;;;7.33;;
920;SDS011;447;51.332;6.778;2023-05-10T05:25:37;7.50;;;6.30;;
920;SDS011;447;51.332;6.778;2023-05-10T05:28:05;9.80;;;7.00;;
920;SDS011;447;51.332;6.778;2023-05-10T05:30:31;8.17;;;7.20;;
920;SDS011;447;51.332;6.778;2023-05-10T05:32:59;9.20;;;8.10;;
920;SDS011;447;51.332;6.778;2023-05-10T05:35:30;10.30;;;8.90;;
920;SDS011;447;51.332;6.778;2023-05-10T05:37:56;8.43;;;7.30;;
920;SDS011;447;51.332;6.778;2023-05-10T05:40:22;9.83;;;8.10;;
920;SDS011;447;51.332;6.778;2023-05-10T05:42:48;8.53;;;7.33;;
920;SDS011;447;51.332;6.778;2023-05-10T05:45:16;10.23;;;9.13;;
920;SDS011;447;51.332;6.778;2023-05-10T05:47:42;8.83;;;7.80;;
920;SDS011;447;51.332;6.778;2023-05-10T05:50:09;8.53;;;7.63;;
920;SDS011;447;51.332;6.778;2023-05-10T05:52:37;9.40;;;8.40;;
920;SDS011;447;51.332;6.778;2023-05-10T05:55:06;10.77;;;8.83;;
920;SDS011;447;51.332;6.778;2023-05-10T05:57:32;10.40;;;8.63;;
920;SDS011;447;51.332;6.778;2023-05-10T06:00:00;10.63;;;8.93;;
920;SDS011;447;51.332;6.778;2023-05-10T06:02:38;11.47;;;8.63;;
920;SDS011;447;51.332;6.778;2023-05-10T06:05:06;10.77;;;8.40;;
920;SDS011;447;51.332;6.778;2023-05-10T06:07:33;10.77;;;9.50;;
920;SDS011;447;51.332;6.778;2023-05-10T06:10:01;15.03;;;9.50;;
920;SDS011;447;51.332;6.778;2023-05-10T06:12:28;11.70;;;9.63;;
920;SDS011;447;51.332;6.778;2023-05-10T06:14:54;10.83;;;9.20;;
920;SDS011;447;51.332;6.778;2023-05-10T06:17:22;10.67;;;8.90;;
920;SDS011;447;51.332;6.778;2023-05-10T06:19:49;14.43;;;10.00;;
920;SDS011;447;51.332;6.778;2023-05-10T06:22:17;10.60;;;8.70;;
920;SDS011;447;51.332;6.778;2023-05-10T06:24:43;10.57;;;8.30;;
920;SDS011;447;51.332;6.778;2023-05-10T06:27:14;11.90;;;9.10;;
920;SDS011;447;51.332;6.778;2023-05-10T06:29:40;12.90;;;10.17;;
920;SDS011;447;51.332;6.778;2023-05-10T06:32:07;10.50;;;9.40;;
920;SDS011;447;51.332;6.778;2023-05-10T06:34:33;11.50;;;9.43;;
920;SDS011;447;51.332;6.778;2023-05-10T06:36:59;13.00;;;9.33;;
920;SDS011;447;51.332;6.778;2023-05-10T06:39:25;10.47;;;8.60;;
920;SDS011;447;51.332;6.778;2023-05-10T06:41:51;11.40;;;8.70;;
920;SDS011;447;51.332;6.778;2023-05-10T06:44:20;11.60;;;9.43;;
920;SDS011;447;51.332;6.778;2023-05-10T06:46:46;10.80;;;8.90;;
920;SDS011;447;51.332;6.778;2023-05-10T06:49:17;11.80;;;8.87;;
920;SDS011;447;51.332;6.778;2023-05-10T06:51:43;14.93;;;10.20;;
920;SDS011;447;51.332;6.778;2023-05-10T06:54:12;11.87;;;9.40;;
920;SDS011;447;51.332;6.778;2023-05-10T06:56:40;13.10;;;9.70;;
920;SDS011;447;51.332;6.778;2023-05-10T06:59:06;13.43;;;10.57;;
920;SDS011;447;51.332;6.778;2023-05-10T07:01:35;11.70;;;9.90;;
920;SDS011;447;51.332;6.778;2023-05-10T07:04:01;12.77;;;9.83;;
920;SDS011;447;51.332;6.778;2023-05-10T07:06:29;14.47;;;11.00;;
920;SDS011;447;51.332;6.778;2023-05-10T07:08:57;17.70;;;12.03;;
920;SDS011;447;51.332;6.778;2023-05-10T07:11:23;14.40;;;10.30;;
920;SDS011;447;51.332;6.778;2023-05-10T07:13:49;14.30;;;11.43;;
920;SDS011;447;51.332;6.778;2023-05-10T07:16:18;16.13;;;12.07;;
920;SDS011;447;51.332;6.778;2023-05-10T07:18:46;18.13;;;12.60;;
920;SDS011;447;51.332;6.778;2023-05-10T07:21:12;20.27;;;11.87;;
920;SDS011;447;51.332;6.778;2023-05-10T07:23:38;16.60;;;12.40;;
920;SDS011;447;51.332;6.778;2023-05-10T07:26:04;18.80;;;11.77;;
920;SDS011;447;51.332;6.778;2023-05-10T07:28:30;16.10;;;12.00;;
920;SDS011;447;51.332;6.778;2023-05-10T07:30:56;17.70;;;11.63;;
920;SDS011;447;51.332;6.778;2023-05-10T07:33:27;18.17;;;11.90;;
920;SDS011;447;51.332;6.778;2023-05-10T07:35:53;20.30;;;12.60;;
920;SDS011;447;51.332;6.778;2023-05-10T07:38:21;16.10;;;12.40;;
920;SDS011;447;51.332;6.778;2023-05-10T07:40:48;16.40;;;11.80;;
920;SDS011;447;51.332;6.778;2023-05-10T07:43:14;16.80;;;11.67;;
920;SDS011;447;51.332;6.778;2023-05-10T07:45:40;15.07;;;11.90;;
920;SDS011;447;51.332;6.778;2023-05-10T07:48:06;18.23;;;10.90;;
920;SDS011;447;51.332;6.778;2023-05-10T07:50:34;16.00;;;11.33;;
920;SDS011;447;51.332;6.778;2023-05-10T07:53:00;15.30;;;11.43;;
920;SDS011;447;51.332;6.778;2023-05-10T07:55:25;19.57;;;12.30;;
920;SDS011;447;51.332;6.778;2023-05-10T07:57:54;14.87;;;11.30;;
920;SDS011;447;51.332;6.778;2023-05-10T08:00:20;16.53;;;11.27;;
920;SDS011;447;51.332;6.778;2023-05-10T08:02:46;16.80;;;12.20;;
920;SDS011;447;51.332;6.778;2023-05-10T08:05:18;17.23;;;12.00;;
920;SDS011;447;51.332;6.778;2023-05-10T08:07:44;13.83;;;10.50;;
920;SDS011;447;51.332;6.778;2023-05-10T08:10:14;14.63;;;10.20;;
920;SDS011;447;51.332;6.778;2023-05-10T08:12:40;15.37;;;11.10;;
920;SDS011;447;51.332;6.778;2023-05-10T08:15:06;16.30;;;11.80;;
920;SDS011;447;51.332;6.778;2023-05-10T08:17:33;16.17;;;11.60;;
920;SDS011;447;51.332;6.778;2023-05-10T08:19:59;15.50;;;11.37;;
920;SDS011;447;51.332;6.778;2023-05-10T08:22:30;17.73;;;12.40;;
920;SDS011;447;51.332;6.778;2023-05-10T08:24:58;21.97;;;13.63;;
920;SDS011;447;51.332;6.778;2023-05-10T08:27:24;18.23;;;11.87;;
920;SDS011;447;51.332;6.778;2023-05-10T08:29:51;16.23;;;12.03;;
920;SDS011;447;51.332;6.778;2023-05-10T08:32:20;16.90;;;12.80;;
920;SDS011;447;51.332;6.778;2023-05-10T08:34:50;21.67;;;13.30;;
920;SDS011;447;51.332;6.778;2023-05-10T08:37:18;21.13;;;14.07;;
920;SDS011;447;51.332;6.778;2023-05-10T08:39:44;21.30;;;13.90;;
920;SDS011;447;51.332;6.778;2023-05-10T08:42:13;21.27;;;14.20;;
920;SDS011;447;51.332;6.778;2023-05-10T08:44:42;22.00;;;14.23;;
920;SDS011;447;51.332;6.778;2023-05-10T08:47:10;17.43;;;12.90;;
920;SDS011;447;51.332;6.778;2023-05-10T08:49:43;20.13;;;14.23;;
920;SDS011;447;51.332;6.778;2023-05-10T08:52:14;22.77;;;15.93;;
920;SDS011;447;51.332;6.778;2023-05-10T08:54:41;23.07;;;14.57;;
920;SDS011;447;51.332;6.778;2023-05-10T08:57:08;21.03;;;15.30;;
920;SDS011;447;51.332;6.778;2023-05-10T08:59:34;19.73;;;14.57;;
920;SDS011;447;51.332;6.778;2023-05-10T09:02:04;23.50;;;15.07;;
920;SDS011;447;51.332;6.778;2023-05-10T09:04:33;21.57;;;15.57;;
920;SDS011;447;51.332;6.778;2023-05-10T09:06:58;21.10;;;14.37;;
920;SDS011;447;51.332;6.778;2023-05-10T09:09:31;19.40;;;14.87;;
920;SDS011;447;51.332;6.778;2023-05-10T09:11:59;19.90;;;13.83;;
920;SDS011;447;51.332;6.778;2023-05-10T09:14:25;20.43;;;13.23;;
920;SDS011;447;51.332;6.778;2023-05-10T09:16:51;18.50;;;13.60;;
920;SDS011;447;51.332;6.778;2023-05-10T09:19:22;21.33;;;14.60;;
920;SDS011;447;51.332;6.778;2023-05-10T09:21:48;22.43;;;15.17;;
920;SDS011;447;51.332;6.778;2023-05-10T09:24:17;17.40;;;13.47;;
920;SDS011;447;51.332;6.778;2023-05-10T09:26:47;19.60;;;14.03;;
920;SDS011;447;51.332;6.778;2023-05-10T09:29:14;20.70;;;14.57;;
920;SDS011;447;51.332;6.778;2023-05-10T09:34:10;20.40;;;13.67;;
920;SDS011;447;51.332;6.778;2023-05-10T09:36:38;18.77;;;13.20;;
920;SDS011;447;51.332;6.778;2023-05-10T09:39:30;18.53;;;13.90;;
920;SDS011;447;51.332;6.778;2023-05-10T09:42:01;17.30;;;12.20;;
920;SDS011;447;51.332;6.778;2023-05-10T09:44:32;16.90;;;13.03;;
920;SDS011;447;51.332;6.778;2023-05-10T09:46:59;19.60;;;12.90;;
920;SDS011;447;51.332;6.778;2023-05-10T09:49:26;16.80;;;12.73;;
920;SDS011;447;51.332;6.778;2023-05-10T09:52:02;15.80;;;11.93;;
920;SDS011;447;51.332;6.778;2023-05-10T09:54:30;14.50;;;11.43;;
920;SDS011;447;51.332;6.778;2023-05-10T09:56:57;19.10;;;11.77;;
920;SDS011;447;51.332;6.778;2023-05-10T09:59:25;16.60;;;10.60;;
920;SDS011;447;51.332;6.778;2023-05-10T10:01:58;13.60;;;10.53;;
920;SDS011;447;51.332;6.778;2023-05-10T10:04:25;12.60;;;9.60;;
920;SDS011;447;51.332;6.778;2023-05-10T10:07:04;12.80;;;10.47;;
920;SDS011;447;51.332;6.778;2023-05-10T10:09:33;12.77;;;9.37;;
920;SDS011;447;51.332;6.778;2023-05-10T10:12:02;13.80;;;9.63;;
920;SDS011;447;51.332;6.778;2023-05-10T10:14:29;13.00;;;9.80;;
920;SDS011;447;51.332;6.778;2023-05-10T10:16:55;13.63;;;9.80;;
920;SDS011;447;51.332;6.778;2023-05-10T10:19:22;12.87;;;9.60;;
920;SDS011;447;51.332;6.778;2023-05-10T10:21:49;11.67;;;9.00;;
920;SDS011;447;51.332;6.778;2023-05-10T10:24:17;11.20;;;9.40;;
920;SDS011;447;51.332;6.778;2023-05-10T10:26:43;13.00;;;9.10;;
920;SDS011;447;51.332;6.778;2023-05-10T10:29:17;11.70;;;9.70;;
920;SDS011;447;51.332;6.778;2023-05-10T10:32:03;10.87;;;8.90;;
920;SDS011;447;51.332;6.778;2023-05-10T10:34:55;11.10;;;8.60;;
920;SDS011;447;51.332;6.778;2023-05-10T10:37:22;12.87;;;10.07;;
920;SDS011;447;51.332;6.778;2023-05-10T10:42:57;14.17;;;10.53;;
920;SDS011;447;51.332;6.778;2023-05-10T10:45:46;11.73;;;9.50;;
920;SDS011;447;51.332;6.778;2023-05-10T10:48:33;16.00;;;10.20;;
920;SDS011;447;51.332;6.778;2023-05-10T10:50:59;12.47;;;9.17;;
920;SDS011;447;51.332;6.778;2023-05-10T10:53:26;12.13;;;9.60;;
920;SDS011;447;51.332;6.778;2023-05-10T10:56:07;12.10;;;9.60;;
920;SDS011;447;51.332;6.778;2023-05-10T10:58:35;12.80;;;9.60;;
920;SDS011;447;51.332;6.778;2023-05-10T11:01:32;14.30;;;9.70;;
920;SDS011;447;51.332;6.778;2023-05-10T11:06:31;13.30;;;9.07;;
920;SDS011;447;51.332;6.778;2023-05-10T11:08:59;10.03;;;8.33;;
920;SDS011;447;51.332;6.778;2023-05-10T11:11:34;9.27;;;8.07;;
920;SDS011;447;51.332;6.778;2023-05-10T11:14:05;9.23;;;8.20;;
920;SDS011;447;51.332;6.778;2023-05-10T11:16:44;9.60;;;8.50;;
920;SDS011;447;51.332;6.778;2023-05-10T11:19:11;10.93;;;8.10;;
920;SDS011;447;51.332;6.778;2023-05-10T11:21:48;10.60;;;8.30;;
920;SDS011;447;51.332;6.778;2023-05-10T11:24:38;11.03;;;8.50;;
920;SDS011;447;51.332;6.778;2023-05-10T11:27:21;8.93;;;7.57;;
920;SDS011;447;51.332;6.778;2023-05-10T11:29:52;11.27;;;8.13;;
920;SDS011;447;51.332;6.778;2023-05-10T11:32:19;10.00;;;8.50;;
920;SDS011;447;51.332;6.778;2023-05-10T11:34:46;8.70;;;7.53;;
920;SDS011;447;51.332;6.778;2023-05-10T11:37:13;11.63;;;7.70;;
920;SDS011;447;51.332;6.778;2023-05-10T11:39:45;13.97;;;8.80;;
920;SDS011;447;51.332;6.778;2023-05-10T11:42:12;8.60;;;7.30;;
920;SDS011;447;51.332;6.778;2023-05-10T11:44:40;12.30;;;8.30;;
920;SDS011;447;51.332;6.778;2023-05-10T11:47:11;9.13;;;8.00;;
920;SDS011;447;51.332;6.778;2023-05-10T11:49:43;9.07;;;7.90;;
920;SDS011;447;51.332;6.778;2023-05-10T11:52:11;11.97;;;7.80;;
920;SDS011;447;51.332;6.778;2023-05-10T11:54:37;9.60;;;7.93;;
920;SDS011;447;51.332;6.778;2023-05-10T11:57:12;10.00;;;8.53;;
920;SDS011;447;51.332;6.778;2023-05-10T11:59:40;10.00;;;7.83;;
920;SDS011;447;51.332;6.778;2023-05-10T12:02:07;10.23;;;8.33;;
920;SDS011;447;51.332;6.778;2023-05-10T12:04:33;9.63;;;7.80;;
920;SDS011;447;51.332;6.778;2023-05-10T12:06:59;12.67;;;8.83;;
920;SDS011;447;51.332;6.778;2023-05-10T12:09:28;11.57;;;8.27;;
920;SDS011;447;51.332;6.778;2023-05-10T12:11:55;9.17;;;8.20;;
920;SDS011;447;51.332;6.778;2023-05-10T12:14:24;9.87;;;8.90;;
920;SDS011;447;51.332;6.778;2023-05-10T12:16:52;12.47;;;8.53;;
920;SDS011;447;51.332;6.778;2023-05-10T12:19:18;9.17;;;8.07;;
920;SDS011;447;51.332;6.778;2023-05-10T12:21:46;9.77;;;8.77;;
920;SDS011;447;51.332;6.778;2023-05-10T12:24:15;10.23;;;9.10;;
920;SDS011;447;51.332;6.778;2023-05-10T12:26:47;12.03;;;9.17;;
920;SDS011;447;51.332;6.778;2023-05-10T12:29:17;11.03;;;9.07;;
920;SDS011;447;51.332;6.778;2023-05-10T12:31:58;10.07;;;8.80;;
920;SDS011;447;51.332;6.778;2023-05-10T12:34:30;9.57;;;8.50;;
920;SDS011;447;51.332;6.778;2023-05-10T12:37:00;10.30;;;8.77;;
920;SDS011;447;51.332;6.778;2023-05-10T12:39:37;11.50;;;8.07;;
920;SDS011;447;51.332;6.778;2023-05-10T12:42:08;11.10;;;7.47;;
920;SDS011;447;51.332;6.778;2023-05-10T12:44:37;10.90;;;7.43;;
920;SDS011;447;51.332;6.778;2023-05-10T12:47:06;8.83;;;7.60;;
920;SDS011;447;51.332;6.778;2023-05-10T12:49:33;10.97;;;9.20;;
920;SDS011;447;51.332;6.778;2023-05-10T12:52:03;9.50;;;8.57;;
920;SDS011;447;51.332;6.778;2023-05-10T12:54:34;10.90;;;9.10;;
920;SDS011;447;51.332;6.778;2023-05-10T12:57:02;8.80;;;7.90;;
920;SDS011;447;51.332;6.778;2023-05-10T12:59:28;9.23;;;8.30;;
920;SDS011;447;51.332;6.778;2023-05-10T13:01:56;9.60;;;8.23;;
920;SDS011;447;51.332;6.778;2023-05-10T13:04:27;9.57;;;8.63;;
920;SDS011;447;51.332;6.778;2023-05-10T13:06:53;9.60;;;8.30;;
920;SDS011;447;51.332;6.778;2023-05-10T13:09:26;9.80;;;8.10;;
920;SDS011;447;51.332;6.778;2023-05-10T13:11:54;9.93;;;8.93;;
920;SDS011;447;51.332;6.778;2023-05-10T13:14:20;10.23;;;9.23;;
920;SDS011;447;51.332;6.778;2023-05-10T13:16:49;10.63;;;8.70;;
920;SDS011;447;51.332;6.778;2023-05-10T13:19:20;10.67;;;8.90;;
920;SDS011;447;51.332;6.778;2023-05-10T13:21:51;10.10;;;8.30;;
920;SDS011;447;51.332;6.778;2023-05-10T13:24:17;10.60;;;9.23;;
920;SDS011;447;51.332;6.778;2023-05-10T13:26:43;10.70;;;9.60;;
920;SDS011;447;51.332;6.778;2023-05-10T13:29:09;10.83;;;9.60;;
920;SDS011;447;51.332;6.778;2023-05-10T13:31:37;12.10;;;10.53;;
920;SDS011;447;51.332;6.778;2023-05-10T13:34:03;12.00;;;10.63;;
920;SDS011;447;51.332;6.778;2023-05-10T13:36:33;10.13;;;8.90;;
920;SDS011;447;51.332;6.778;2023-05-10T13:38:58;11.53;;;10.30;;
920;SDS011;447;51.332;6.778;2023-05-10T13:41:27;12.47;;;10.17;;
920;SDS011;447;51.332;6.778;2023-05-10T13:43:56;11.97;;;10.60;;
920;SDS011;447;51.332;6.778;2023-05-10T13:46:24;12.30;;;11.00;;
920;SDS011;447;51.332;6.778;2023-05-10T13:48:50;12.30;;;10.83;;
920;SDS011;447;51.332;6.778;2023-05-10T13:51:16;13.37;;;10.80;;
920;SDS011;447;51.332;6.778;2023-05-10T13:53:47;14.20;;;11.43;;
920;SDS011;447;51.332;6.778;2023-05-10T13:56:15;14.10;;;12.03;;
920;SDS011;447;51.332;6.778;2023-05-10T13:58:41;12.97;;;11.67;;
920;SDS011;447;51.332;6.778;2023-05-10T14:01:10;11.47;;;10.00;;
920;SDS011;447;51.332;6.778;2023-05-10T14:03:37;15.60;;;11.80;;
920;SDS011;447;51.332;6.778;2023-05-10T14:06:07;12.93;;;10.67;;
920;SDS011;447;51.332;6.778;2023-05-10T14:08:36;11.23;;;10.13;;
920;SDS011;447;51.332;6.778;2023-05-10T14:11:04;10.20;;;9.13;;
920;SDS011;447;51.332;6.778;2023-05-10T14:13:33;14.03;;;11.80;;
920;SDS011;447;51.332;6.778;2023-05-10T14:15:59;12.23;;;10.93;;
920;SDS011;447;51.332;6.778;2023-05-10T14:18:28;13.50;;;11.43;;
920;SDS011;447;51.332;6.778;2023-05-10T14:20:54;15.93;;;11.43;;
920;SDS011;447;51.332;6.778;2023-05-10T14:23:23;15.80;;;12.63;;
920;SDS011;447;51.332;6.778;2023-05-10T14:25:52;13.83;;;11.60;;
920;SDS011;447;51.332;6.778;2023-05-10T14:28:20;12.67;;;11.33;;
920;SDS011;447;51.332;6.778;2023-05-10T14:30:50;13.77;;;10.83;;
920;SDS011;447;51.332;6.778;2023-05-10T14:33:20;16.70;;;12.20;;
920;SDS011;447;51.332;6.778;2023-05-10T14:35:48;16.20;;;12.97;;
920;SDS011;447;51.332;6.778;2023-05-10T14:38:15;15.43;;;13.10;;
920;SDS011;447;51.332;6.778;2023-05-10T14:40:44;17.23;;;12.50;;
920;SDS011;447;51.332;6.778;2023-05-10T14:43:12;14.07;;;11.47;;
920;SDS011;447;51.332;6.778;2023-05-10T14:45:38;13.60;;;11.10;;
920;SDS011;447;51.332;6.778;2023-05-10T14:48:04;13.20;;;11.80;;
920;SDS011;447;51.332;6.778;2023-05-10T14:50:35;12.80;;;11.50;;
920;SDS011;447;51.332;6.778;2023-05-10T14:55:30;13.47;;;12.03;;
920;SDS011;447;51.332;6.778;2023-05-10T14:57:58;12.70;;;11.43;;
920;SDS011;447;51.332;6.778;2023-05-10T15:00:24;15.23;;;11.57;;
920;SDS011;447;51.332;6.778;2023-05-10T15:02:52;13.50;;;11.90;;
920;SDS011;447;51.332;6.778;2023-05-10T15:05:18;12.53;;;11.20;;
920;SDS011;447;51.332;6.778;2023-05-10T15:07:44;13.60;;;11.40;;
920;SDS011;447;51.332;6.778;2023-05-10T15:10:13;12.33;;;10.97;;
920;SDS011;447;51.332;6.778;2023-05-10T15:12:39;13.10;;;11.77;;
920;SDS011;447;51.332;6.778;2023-05-10T15:15:06;12.10;;;10.80;;
920;SDS011;447;51.332;6.778;2023-05-10T15:17:32;13.00;;;10.50;;
920;SDS011;447;51.332;6.778;2023-05-10T15:20:01;11.83;;;10.43;;
920;SDS011;447;51.332;6.778;2023-05-10T15:22:32;11.87;;;10.43;;
920;SDS011;447;51.332;6.778;2023-05-10T15:25:01;12.07;;;10.77;;
920;SDS011;447;51.332;6.778;2023-05-10T15:27:29;11.73;;;10.53;;
920;SDS011;447;51.332;6.778;2023-05-10T15:29:55;10.93;;;9.77;;
920;SDS011;447;51.332;6.778;2023-05-10T15:32:21;10.87;;;9.77;;
920;SDS011;447;51.332;6.778;2023-05-10T15:34:49;11.30;;;10.20;;
920;SDS011;447;51.332;6.778;2023-05-10T15:37:18;10.57;;;9.30;;
920;SDS011;447;51.332;6.778;2023-05-10T15:39:44;10.13;;;9.00;;
920;SDS011;447;51.332;6.778;2023-05-10T15:42:11;11.20;;;9.30;;
920;SDS011;447;51.332;6.778;2023-05-10T15:44:37;11.63;;;10.53;;
920;SDS011;447;51.332;6.778;2023-05-10T15:47:04;9.50;;;8.40;;
920;SDS011;447;51.332;6.778;2023-05-10T15:49:35;10.57;;;8.90;;
920;SDS011;447;51.332;6.778;2023-05-10T15:52:01;10.90;;;8.17;;
920;SDS011;447;51.332;6.778;2023-05-10T15:54:28;9.40;;;7.70;;
920;SDS011;447;51.332;6.778;2023-05-10T15:56:54;9.37;;;8.40;;
920;SDS011;447;51.332;6.778;2023-05-10T15:59:20;8.43;;;7.63;;
920;SDS011;447;51.332;6.778;2023-05-10T16:01:46;7.80;;;6.97;;
920;SDS011;447;51.332;6.778;2023-05-10T16:04:12;7.10;;;6.40;;
920;SDS011;447;51.332;6.778;2023-05-10T16:06:40;8.40;;;6.30;;
920;SDS011;447;51.332;6.778;2023-05-10T16:09:11;6.03;;;5.27;;
920;SDS011;447;51.332;6.778;2023-05-10T16:11:37;6.13;;;5.00;;
920;SDS011;447;51.332;6.778;2023-05-10T16:14:06;6.03;;;5.47;;